sensor_id;sensor_type;location;lat;lon;timestamp;pressure;altitude;pressure_sealevel;temperature;humidity
40171;BME280;37650;52.790;18.268;2023-02-28T00:03:00;102107.66;;;-3.31;99.80
40171;BME280;37650;52.790;18.268;2023-02-28T00:06:23;102106.79;;;-3.30;99.95
40171;BME280;37650;52.790;18.268;2023-02-28T00:09:44;102104.33;;;-3.28;100.00
40171;BME280;37650;52.790;18.268;2023-02-28T00:13:07;102101.71;;;-3.25;100.00
40171;BME280;37650;52.790;18.268;2023-02-28T00:16:28;102102.27;;;-3.25;100.00
40171;BME280;37650;52.790;18.268;2023-02-28T00:19:50;102099.31;;;-3.26;100.00
40171;BME280;37650;52.790;18.268;2023-02-28T00:23:12;102101.48;;;-3.27;100.00
40171;BME280;37650;52.790;18.268;2023-02-28T00:26:33;102099.65;;;-3.33;100.00
40171;BME280;37650;52.790;18.268;2023-02-28T00:29:54;102100.54;;;-3.36;100.00
40171;BME280;37650;52.790;18.268;2023-02-28T00:33:16;102101.94;;;-3.39;100.00
40171;BME280;37650;52.790;18.268;2023-02-28T00:36:37;102104.50;;;-3.43;100.00
40171;BME280;37650;52.790;18.268;2023-02-28T00:39:59;102106.87;;;-3.47;100.00
40171;BME280;37650;52.790;18.268;2023-02-28T00:43:21;102111.30;;;-3.51;100.00
40171;BME280;37650;52.790;18.268;2023-02-28T00:46:43;102112.00;;;-3.51;100.00
40171;BME280;37650;52.790;18.268;2023-02-28T00:50:05;102112.10;;;-3.49;100.00
40171;BME280;37650;52.790;18.268;2023-02-28T00:53:27;102113.61;;;-3.46;100.00
40171;BME280;37650;52.790;18.268;2023-02-28T00:56:51;102115.50;;;-3.46;100.00
40171;BME280;37650;52.790;18.268;2023-02-28T01:00:13;102112.44;;;-3.49;100.00
40171;BME280;37650;52.790;18.268;2023-02-28T01:03:34;102112.06;;;-3.50;100.00
40171;BME280;37650;52.790;18.268;2023-02-28T01:06:55;102111.91;;;-3.53;100.00
40171;BME280;37650;52.790;18.268;2023-02-28T01:10:16;102111.26;;;-3.56;100.00
40171;BME280;37650;52.790;18.268;2023-02-28T01:13:37;102108.84;;;-3.60;100.00
40171;BME280;37650;52.790;18.268;2023-02-28T01:16:59;102105.08;;;-3.63;100.00
40171;BME280;37650;52.790;18.268;2023-02-28T01:20:21;102102.11;;;-3.68;100.00
40171;BME280;37650;52.790;18.268;2023-02-28T01:23:42;102106.09;;;-3.71;100.00
40171;BME280;37650;52.790;18.268;2023-02-28T01:27:05;102100.58;;;-3.71;100.00
40171;BME280;37650;52.790;18.268;2023-02-28T01:30:26;102103.05;;;-3.66;100.00
40171;BME280;37650;52.790;18.268;2023-02-28T01:33:47;102103.27;;;-3.62;100.00
40171;BME280;37650;52.790;18.268;2023-02-28T01:37:08;102103.89;;;-3.60;100.00
40171;BME280;37650;52.790;18.268;2023-02-28T01:40:30;102102.25;;;-3.61;100.00
40171;BME280;37650;52.790;18.268;2023-02-28T01:44:01;102102.02;;;-3.70;100.00
40171;BME280;37650;52.790;18.268;2023-02-28T01:47:27;102099.27;;;-3.77;100.00
40171;BME280;37650;52.790;18.268;2023-02-28T01:50:56;102102.59;;;-3.79;100.00
40171;BME280;37650;52.790;18.268;2023-02-28T01:54:31;102102.59;;;-3.83;100.00
40171;BME280;37650;52.790;18.268;2023-02-28T01:57:56;102108.81;;;-3.89;100.00
40171;BME280;37650;52.790;18.268;2023-02-28T02:01:21;102104.33;;;-3.93;100.00
40171;BME280;37650;52.790;18.268;2023-02-28T02:04:53;102104.08;;;-3.95;100.00
40171;BME280;37650;52.790;18.268;2023-02-28T02:08:21;102099.73;;;-3.93;100.00
40171;BME280;37650;52.790;18.268;2023-02-28T02:11:44;102102.45;;;-3.89;100.00
40171;BME280;37650;52.790;18.268;2023-02-28T02:15:54;102102.44;;;-3.89;100.00
40171;BME280;37650;52.790;18.268;2023-02-28T02:37:51;102107.51;;;-4.12;100.00
40171;BME280;37650;52.790;18.268;2023-02-28T02:41:22;102107.55;;;-4.14;100.00
40171;BME280;37650;52.790;18.268;2023-02-28T02:45:01;102107.86;;;-4.18;100.00
40171;BME280;37650;52.790;18.268;2023-02-28T02:48:30;102106.30;;;-4.22;100.00
40171;BME280;37650;52.790;18.268;2023-02-28T02:51:53;102103.60;;;-4.21;100.00
40171;BME280;37650;52.790;18.268;2023-02-28T02:55:17;102103.75;;;-4.15;100.00
40171;BME280;37650;52.790;18.268;2023-02-28T02:58:42;102101.95;;;-4.13;100.00
40171;BME280;37650;52.790;18.268;2023-02-28T03:02:08;102101.89;;;-4.15;100.00
40171;BME280;37650;52.790;18.268;2023-02-28T03:05:50;102099.67;;;-4.17;100.00
40171;BME280;37650;52.790;18.268;2023-02-28T03:09:12;102096.58;;;-4.21;100.00
40171;BME280;37650;52.790;18.268;2023-02-28T03:12:41;102104.54;;;-4.23;100.00
40171;BME280;37650;52.790;18.268;2023-02-28T03:23:38;102105.02;;;-4.31;100.00
40171;BME280;37650;52.790;18.268;2023-02-28T03:27:09;102107.80;;;-4.33;100.00
40171;BME280;37650;52.790;18.268;2023-02-28T03:30:47;102104.32;;;-4.31;100.00
40171;BME280;37650;52.790;18.268;2023-02-28T03:34:22;102110.85;;;-4.27;100.00
40171;BME280;37650;52.790;18.268;2023-02-28T03:37:45;102111.88;;;-4.31;100.00
40171;BME280;37650;52.790;18.268;2023-02-28T03:41:14;102118.95;;;-4.33;100.00
40171;BME280;37650;52.790;18.268;2023-02-28T03:44:42;102118.61;;;-4.36;100.00
40171;BME280;37650;52.790;18.268;2023-02-28T03:48:25;102126.92;;;-4.41;100.00
40171;BME280;37650;52.790;18.268;2023-02-28T03:51:49;102123.84;;;-4.44;100.00
40171;BME280;37650;52.790;18.268;2023-02-28T03:55:12;102121.30;;;-4.47;100.00
40171;BME280;37650;52.790;18.268;2023-02-28T03:58:51;102123.84;;;-4.48;100.00
40171;BME280;37650;52.790;18.268;2023-02-28T04:02:15;102124.54;;;-4.51;100.00
40171;BME280;37650;52.790;18.268;2023-02-28T04:05:51;102124.91;;;-4.54;100.00
40171;BME280;37650;52.790;18.268;2023-02-28T04:09:14;102128.57;;;-4.49;100.00
40171;BME280;37650;52.790;18.268;2023-02-28T04:12:35;102131.23;;;-4.47;100.00
40171;BME280;37650;52.790;18.268;2023-02-28T04:15:56;102134.95;;;-4.48;100.00
40171;BME280;37650;52.790;18.268;2023-02-28T04:19:18;102135.11;;;-4.45;100.00
40171;BME280;37650;52.790;18.268;2023-02-28T04:22:39;102133.33;;;-4.46;100.00
40171;BME280;37650;52.790;18.268;2023-02-28T04:26:01;102138.98;;;-4.53;100.00
40171;BME280;37650;52.790;18.268;2023-02-28T04:29:25;102145.79;;;-4.54;100.00
40171;BME280;37650;52.790;18.268;2023-02-28T04:32:47;102147.02;;;-4.60;100.00
40171;BME280;37650;52.790;18.268;2023-02-28T04:36:08;102144.11;;;-4.63;100.00
40171;BME280;37650;52.790;18.268;2023-02-28T04:39:30;102150.66;;;-4.65;100.00
40171;BME280;37650;52.790;18.268;2023-02-28T04:42:51;102149.80;;;-4.65;100.00
40171;BME280;37650;52.790;18.268;2023-02-28T04:46:12;102153.69;;;-4.63;100.00
40171;BME280;37650;52.790;18.268;2023-02-28T04:49:34;102153.34;;;-4.60;100.00
40171;BME280;37650;52.790;18.268;2023-02-28T04:52:56;102151.29;;;-4.63;100.00
40171;BME280;37650;52.790;18.268;2023-02-28T04:56:18;102151.89;;;-4.65;100.00
40171;BME280;37650;52.790;18.268;2023-02-28T04:59:39;102152.59;;;-4.71;100.00
40171;BME280;37650;52.790;18.268;2023-02-28T05:03:01;102152.89;;;-4.75;100.00
40171;BME280;37650;52.790;18.268;2023-02-28T05:06:24;102154.90;;;-4.79;100.00
40171;BME280;37650;52.790;18.268;2023-02-28T05:09:45;102157.50;;;-4.85;100.00
40171;BME280;37650;52.790;18.268;2023-02-28T05:13:08;102163.56;;;-4.87;100.00
40171;BME280;37650;52.790;18.268;2023-02-28T05:16:31;102168.01;;;-4.87;100.00
40171;BME280;37650;52.790;18.268;2023-02-28T05:19:52;102173.22;;;-4.89;100.00
40171;BME280;37650;52.790;18.268;2023-02-28T05:23:14;102171.84;;;-4.89;100.00
40171;BME280;37650;52.790;18.268;2023-02-28T05:26:37;102173.52;;;-4.86;100.00
40171;BME280;37650;52.790;18.268;2023-02-28T05:29:58;102169.59;;;-4.89;100.00
40171;BME280;37650;52.790;18.268;2023-02-28T05:33:20;102174.30;;;-4.88;100.00
40171;BME280;37650;52.790;18.268;2023-02-28T05:36:41;102175.25;;;-4.86;100.00
40171;BME280;37650;52.790;18.268;2023-02-28T05:40:04;102180.00;;;-4.87;100.00
40171;BME280;37650;52.790;18.268;2023-02-28T05:43:27;102182.48;;;-4.89;100.00
40171;BME280;37650;52.790;18.268;2023-02-28T05:46:48;102190.21;;;-4.91;100.00
40171;BME280;37650;52.790;18.268;2023-02-28T05:50:09;102187.30;;;-4.88;100.00
40171;BME280;37650;52.790;18.268;2023-02-28T05:53:32;102187.27;;;-4.85;100.00
40171;BME280;37650;52.790;18.268;2023-02-28T05:56:53;102183.34;;;-4.85;100.00
40171;BME280;37650;52.790;18.268;2023-02-28T06:00:14;102182.21;;;-4.81;100.00
40171;BME280;37650;52.790;18.268;2023-02-28T06:03:37;102180.36;;;-4.74;100.00
40171;BME280;37650;52.790;18.268;2023-02-28T06:06:58;102182.38;;;-4.65;100.00
40171;BME280;37650;52.790;18.268;2023-02-28T06:10:19;102182.61;;;-4.60;100.00
40171;BME280;37650;52.790;18.268;2023-02-28T06:13:40;102183.63;;;-4.60;100.00
40171;BME280;37650;52.790;18.268;2023-02-28T06:17:03;102188.67;;;-4.59;100.00
40171;BME280;37650;52.790;18.268;2023-02-28T06:20:26;102190.95;;;-4.52;100.00
40171;BME280;37650;52.790;18.268;2023-02-28T06:23:50;102193.70;;;-4.35;100.00
40171;BME280;37650;52.790;18.268;2023-02-28T06:27:11;102195.42;;;-4.15;100.00
40171;BME280;37650;52.790;18.268;2023-02-28T06:30:33;102200.09;;;-3.92;100.00
40171;BME280;37650;52.790;18.268;2023-02-28T06:33:55;102195.85;;;-3.69;100.00
40171;BME280;37650;52.790;18.268;2023-02-28T06:37:17;102198.26;;;-3.49;100.00
40171;BME280;37650;52.790;18.268;2023-02-28T06:40:38;102193.60;;;-3.10;100.00
40171;BME280;37650;52.790;18.268;2023-02-28T06:44:00;102195.04;;;-2.37;100.00
40171;BME280;37650;52.790;18.268;2023-02-28T06:47:21;102198.98;;;-1.66;100.00
40171;BME280;37650;52.790;18.268;2023-02-28T06:50:43;102191.47;;;-0.59;100.00
40171;BME280;37650;52.790;18.268;2023-02-28T06:54:04;102188.37;;;0.50;100.00
40171;BME280;37650;52.790;18.268;2023-02-28T06:57:29;102188.47;;;1.36;100.00
40171;BME280;37650;52.790;18.268;2023-02-28T07:00:54;102189.57;;;2.14;100.00
40171;BME280;37650;52.790;18.268;2023-02-28T07:04:15;102189.31;;;2.87;100.00
40171;BME280;37650;52.790;18.268;2023-02-28T07:07:36;102186.38;;;3.59;100.00
40171;BME280;37650;52.790;18.268;2023-02-28T07:10:59;102183.13;;;4.36;100.00
40171;BME280;37650;52.790;18.268;2023-02-28T07:14:20;102184.13;;;4.54;97.75
40171;BME280;37650;52.790;18.268;2023-02-28T07:17:43;102182.56;;;4.14;94.16
40171;BME280;37650;52.790;18.268;2023-02-28T07:21:07;102182.69;;;3.74;93.35
40171;BME280;37650;52.790;18.268;2023-02-28T07:24:30;102186.44;;;3.62;93.00
40171;BME280;37650;52.790;18.268;2023-02-28T07:27:51;102182.66;;;3.64;93.20
40171;BME280;37650;52.790;18.268;2023-02-28T07:31:13;102183.21;;;4.01;93.75
40171;BME280;37650;52.790;18.268;2023-02-28T07:34:35;102180.27;;;4.52;93.29
40171;BME280;37650;52.790;18.268;2023-02-28T07:37:59;102177.01;;;5.26;92.89
40171;BME280;37650;52.790;18.268;2023-02-28T07:41:22;102180.10;;;5.79;91.97
40171;BME280;37650;52.790;18.268;2023-02-28T07:44:44;102176.89;;;6.36;90.62
40171;BME280;37650;52.790;18.268;2023-02-28T07:48:06;102169.52;;;6.51;87.57
40171;BME280;37650;52.790;18.268;2023-02-28T07:51:31;102168.79;;;6.69;87.19
40171;BME280;37650;52.790;18.268;2023-02-28T07:54:53;102170.91;;;7.01;86.17
40171;BME280;37650;52.790;18.268;2023-02-28T07:58:14;102174.05;;;7.34;85.15
40171;BME280;37650;52.790;18.268;2023-02-28T08:01:36;102173.81;;;7.60;82.66
40171;BME280;37650;52.790;18.268;2023-02-28T08:04:57;102172.23;;;7.57;82.02
40171;BME280;37650;52.790;18.268;2023-02-28T08:08:18;102167.48;;;7.50;80.54
40171;BME280;37650;52.790;18.268;2023-02-28T08:11:39;102169.78;;;7.56;80.66
40171;BME280;37650;52.790;18.268;2023-02-28T08:15:01;102172.40;;;7.18;79.76
40171;BME280;37650;52.790;18.268;2023-02-28T08:18:23;102177.51;;;6.49;78.21
40171;BME280;37650;52.790;18.268;2023-02-28T08:21:44;102184.31;;;6.30;77.48
40171;BME280;37650;52.790;18.268;2023-02-28T08:25:06;102188.67;;;6.29;78.04
40171;BME280;37650;52.790;18.268;2023-02-28T08:28:28;102194.17;;;6.60;78.52
40171;BME280;37650;52.790;18.268;2023-02-28T08:31:49;102195.21;;;6.59;77.30
40171;BME280;37650;52.790;18.268;2023-02-28T08:35:11;102196.78;;;7.10;78.25
40171;BME280;37650;52.790;18.268;2023-02-28T08:38:33;102200.68;;;7.53;76.76
40171;BME280;37650;52.790;18.268;2023-02-28T08:41:54;102202.27;;;8.12;76.55
40171;BME280;37650;52.790;18.268;2023-02-28T08:45:16;102202.69;;;8.71;75.52
40171;BME280;37650;52.790;18.268;2023-02-28T08:48:37;102206.85;;;9.07;73.85
40171;BME280;37650;52.790;18.268;2023-02-28T08:51:58;102202.60;;;9.29;72.50
40171;BME280;37650;52.790;18.268;2023-02-28T08:55:20;102205.39;;;9.78;71.48
40171;BME280;37650;52.790;18.268;2023-02-28T08:58:41;102200.54;;;10.30;69.86
40171;BME280;37650;52.790;18.268;2023-02-28T09:02:02;102195.87;;;10.87;68.38
40171;BME280;37650;52.790;18.268;2023-02-28T09:05:24;102193.41;;;11.37;67.55
40171;BME280;37650;52.790;18.268;2023-02-28T09:08:48;102192.09;;;11.59;65.14
40171;BME280;37650;52.790;18.268;2023-02-28T09:12:10;102193.25;;;12.17;64.00
40171;BME280;37650;52.790;18.268;2023-02-28T09:15:31;102187.80;;;12.62;62.39
40171;BME280;37650;52.790;18.268;2023-02-28T09:18:52;102182.73;;;12.70;60.51
40171;BME280;37650;52.790;18.268;2023-02-28T09:22:14;102185.63;;;12.94;57.54
40171;BME280;37650;52.790;18.268;2023-02-28T09:25:35;102182.16;;;13.01;56.41
40171;BME280;37650;52.790;18.268;2023-02-28T09:28:57;102181.52;;;13.19;56.28
40171;BME280;37650;52.790;18.268;2023-02-28T09:32:19;102174.54;;;13.24;55.58
40171;BME280;37650;52.790;18.268;2023-02-28T09:35:41;102176.69;;;12.40;54.19
40171;BME280;37650;52.790;18.268;2023-02-28T09:39:03;102174.02;;;12.43;54.23
40171;BME280;37650;52.790;18.268;2023-02-28T09:42:31;102175.16;;;12.79;53.86
40171;BME280;37650;52.790;18.268;2023-02-28T09:49:34;102177.21;;;13.31;50.36
40171;BME280;37650;52.790;18.268;2023-02-28T09:52:57;102180.52;;;12.64;51.11
40171;BME280;37650;52.790;18.268;2023-02-28T10:03:38;102194.49;;;10.14;52.93
40171;BME280;37650;52.790;18.268;2023-02-28T10:07:07;102194.24;;;9.03;53.87
40171;BME280;37650;52.790;18.268;2023-02-28T10:10:42;102198.58;;;8.08;54.75
40171;BME280;37650;52.790;18.268;2023-02-28T10:14:23;102199.84;;;7.25;55.71
40171;BME280;37650;52.790;18.268;2023-02-28T10:17:48;102199.48;;;7.22;56.60
40171;BME280;37650;52.790;18.268;2023-02-28T10:21:38;102193.94;;;7.01;56.55
40171;BME280;37650;52.790;18.268;2023-02-28T10:25:04;102194.02;;;6.42;57.09
40171;BME280;37650;52.790;18.268;2023-02-28T10:28:29;102187.02;;;6.40;57.66
40171;BME280;37650;52.790;18.268;2023-02-28T10:31:51;102176.35;;;7.98;55.95
40171;BME280;37650;52.790;18.268;2023-02-28T10:35:18;102170.09;;;9.51;53.97
40171;BME280;37650;52.790;18.268;2023-02-28T10:38:40;102159.34;;;11.34;52.92
40171;BME280;37650;52.790;18.268;2023-02-28T10:42:01;102156.00;;;12.95;51.65
40171;BME280;37650;52.790;18.268;2023-02-28T10:45:23;102147.38;;;14.62;49.38
40171;BME280;37650;52.790;18.268;2023-02-28T10:48:50;102142.88;;;15.96;47.01
40171;BME280;37650;52.790;18.268;2023-02-28T10:52:38;102141.15;;;17.10;45.48
40171;BME280;37650;52.790;18.268;2023-02-28T10:56:04;102137.84;;;17.13;41.30
40171;BME280;37650;52.790;18.268;2023-02-28T10:59:30;102134.28;;;16.26;38.98
40171;BME280;37650;52.790;18.268;2023-02-28T11:02:51;102136.31;;;16.12;39.96
40171;BME280;37650;52.790;18.268;2023-02-28T11:06:19;102133.21;;;17.37;41.80
40171;BME280;37650;52.790;18.268;2023-02-28T11:09:41;102134.83;;;17.88;39.03
40171;BME280;37650;52.790;18.268;2023-02-28T11:13:06;102136.88;;;17.72;37.27
40171;BME280;37650;52.790;18.268;2023-02-28T11:16:36;102136.52;;;17.20;36.26
40171;BME280;37650;52.790;18.268;2023-02-28T11:20:03;102136.38;;;17.43;36.61
40171;BME280;37650;52.790;18.268;2023-02-28T11:23:27;102130.48;;;17.54;37.38
40171;BME280;37650;52.790;18.268;2023-02-28T11:26:50;102119.36;;;18.27;37.74
40171;BME280;37650;52.790;18.268;2023-02-28T11:33:54;102115.73;;;18.29;34.18
40171;BME280;37650;52.790;18.268;2023-02-28T11:37:18;102118.42;;;17.39;32.93
40171;BME280;37650;52.790;18.268;2023-02-28T11:55:37;102110.21;;;19.34;33.69
40171;BME280;37650;52.790;18.268;2023-02-28T12:02:42;102101.64;;;20.42;33.79
40171;BME280;37650;52.790;18.268;2023-02-28T12:10:05;102094.46;;;21.17;31.80
40171;BME280;37650;52.790;18.268;2023-02-28T12:28:14;102084.74;;;22.26;30.44
40171;BME280;37650;52.790;18.268;2023-02-28T12:31:42;102082.30;;;22.51;28.84
40171;BME280;37650;52.790;18.268;2023-02-28T12:35:14;102077.48;;;22.34;28.82
40171;BME280;37650;52.790;18.268;2023-02-28T12:38:56;102073.55;;;22.24;28.74
40171;BME280;37650;52.790;18.268;2023-02-28T12:42:28;102070.81;;;22.43;27.80
40171;BME280;37650;52.790;18.268;2023-02-28T12:46:00;102074.02;;;22.01;25.77
40171;BME280;37650;52.790;18.268;2023-02-28T12:49:29;102075.89;;;20.91;26.89
40171;BME280;37650;52.790;18.268;2023-02-28T12:53:12;102071.72;;;21.28;27.78
40171;BME280;37650;52.790;18.268;2023-02-28T13:01:09;102062.80;;;23.18;28.44
40171;BME280;37650;52.790;18.268;2023-02-28T13:12:16;102050.06;;;23.87;24.26
40171;BME280;37650;52.790;18.268;2023-02-28T13:15:38;102050.21;;;23.47;25.87
40171;BME280;37650;52.790;18.268;2023-02-28T13:19:10;102046.88;;;23.78;26.05
40171;BME280;37650;52.790;18.268;2023-02-28T13:22:43;102041.38;;;24.13;25.88
40171;BME280;37650;52.790;18.268;2023-02-28T13:26:04;102036.64;;;24.16;25.03
40171;BME280;37650;52.790;18.268;2023-02-28T13:29:40;102030.23;;;24.23;25.14
40171;BME280;37650;52.790;18.268;2023-02-28T13:36:43;102018.67;;;23.69;23.44
40171;BME280;37650;52.790;18.268;2023-02-28T13:40:31;102017.83;;;23.16;24.21
40171;BME280;37650;52.790;18.268;2023-02-28T13:44:02;102007.10;;;23.52;24.18
40171;BME280;37650;52.790;18.268;2023-02-28T13:47:28;102009.36;;;23.22;23.87
40171;BME280;37650;52.790;18.268;2023-02-28T13:50:50;102008.31;;;23.25;24.58
40171;BME280;37650;52.790;18.268;2023-02-28T14:05:22;101996.54;;;17.86;27.64
40171;BME280;37650;52.790;18.268;2023-02-28T14:09:19;101993.40;;;17.60;27.68
40171;BME280;37650;52.790;18.268;2023-02-28T14:16:23;101979.81;;;20.09;26.67
40171;BME280;37650;52.790;18.268;2023-02-28T14:19:46;101979.67;;;20.39;26.32
40171;BME280;37650;52.790;18.268;2023-02-28T14:37:58;101960.05;;;17.84;27.53
40171;BME280;37650;52.790;18.268;2023-02-28T14:41:28;101963.39;;;15.01;29.37
40171;BME280;37650;52.790;18.268;2023-02-28T14:44:54;101967.88;;;12.87;31.37
40171;BME280;37650;52.790;18.268;2023-02-28T14:48:17;101970.01;;;11.30;33.33
40171;BME280;37650;52.790;18.268;2023-02-28T14:51:39;101972.13;;;9.97;35.00
40171;BME280;37650;52.790;18.268;2023-02-28T14:55:05;101977.61;;;8.87;36.39
40171;BME280;37650;52.790;18.268;2023-02-28T14:58:31;101981.86;;;8.01;37.94
40171;BME280;37650;52.790;18.268;2023-02-28T15:02:17;101979.73;;;7.29;39.32
40171;BME280;37650;52.790;18.268;2023-02-28T15:05:38;101978.35;;;6.73;40.80
40171;BME280;37650;52.790;18.268;2023-02-28T15:12:32;101982.58;;;5.92;42.69
40171;BME280;37650;52.790;18.268;2023-02-28T15:15:56;101983.61;;;5.52;42.77
40171;BME280;37650;52.790;18.268;2023-02-28T15:19:39;101991.27;;;5.33;43.42
40171;BME280;37650;52.790;18.268;2023-02-28T15:23:01;101990.52;;;5.84;43.76
40171;BME280;37650;52.790;18.268;2023-02-28T15:26:26;101992.41;;;5.44;44.46
40171;BME280;37650;52.790;18.268;2023-02-28T15:29:53;101992.88;;;5.57;44.79
40171;BME280;37650;52.790;18.268;2023-02-28T15:33:22;101996.19;;;5.76;45.13
40171;BME280;37650;52.790;18.268;2023-02-28T15:36:43;101996.25;;;6.01;44.75
40171;BME280;37650;52.790;18.268;2023-02-28T15:40:13;101991.05;;;5.85;45.42
40171;BME280;37650;52.790;18.268;2023-02-28T15:43:38;101992.86;;;5.37;45.95
40171;BME280;37650;52.790;18.268;2023-02-28T15:47:14;101998.77;;;5.03;46.90
40171;BME280;37650;52.790;18.268;2023-02-28T15:50:37;101999.11;;;4.73;47.73
40171;BME280;37650;52.790;18.268;2023-02-28T15:54:06;101993.05;;;4.36;48.45
40171;BME280;37650;52.790;18.268;2023-02-28T15:57:29;101985.64;;;3.92;49.27
40171;BME280;37650;52.790;18.268;2023-02-28T16:08:22;101986.77;;;3.00;52.10
40171;BME280;37650;52.790;18.268;2023-02-28T16:11:49;101981.80;;;2.76;52.73
40171;BME280;37650;52.790;18.268;2023-02-28T16:15:24;101983.08;;;2.54;53.67
40171;BME280;37650;52.790;18.268;2023-02-28T16:18:47;101981.77;;;2.34;54.76
40171;BME280;37650;52.790;18.268;2023-02-28T16:22:09;101985.05;;;2.11;55.50
40171;BME280;37650;52.790;18.268;2023-02-28T16:25:36;101985.91;;;1.88;56.61
40171;BME280;37650;52.790;18.268;2023-02-28T16:28:58;101989.08;;;1.69;57.53
40171;BME280;37650;52.790;18.268;2023-02-28T16:32:19;101993.68;;;1.53;58.26
40171;BME280;37650;52.790;18.268;2023-02-28T16:35:41;101996.64;;;1.34;58.87
40171;BME280;37650;52.790;18.268;2023-02-28T16:39:03;101998.85;;;1.12;59.73
40171;BME280;37650;52.790;18.268;2023-02-28T16:42:28;101997.77;;;0.92;60.30
40171;BME280;37650;52.790;18.268;2023-02-28T16:45:54;102002.81;;;0.75;61.09
40171;BME280;37650;52.790;18.268;2023-02-28T16:49:17;102000.75;;;0.63;61.70
40171;BME280;37650;52.790;18.268;2023-02-28T16:52:38;102003.42;;;0.54;62.31
40171;BME280;37650;52.790;18.268;2023-02-28T16:56:02;102007.48;;;0.41;62.95
40171;BME280;37650;52.790;18.268;2023-02-28T16:59:24;102003.59;;;0.26;64.01
40171;BME280;37650;52.790;18.268;2023-02-28T17:02:47;102011.33;;;0.14;64.47
40171;BME280;37650;52.790;18.268;2023-02-28T17:06:20;102015.73;;;0.00;65.08
40171;BME280;37650;52.790;18.268;2023-02-28T17:09:44;102026.60;;;-0.16;65.81
40171;BME280;37650;52.790;18.268;2023-02-28T17:13:06;102022.73;;;-0.28;66.39
40171;BME280;37650;52.790;18.268;2023-02-28T17:16:31;102025.38;;;-0.36;66.99
40171;BME280;37650;52.790;18.268;2023-02-28T17:19:53;102026.40;;;-0.47;67.84
40171;BME280;37650;52.790;18.268;2023-02-28T17:23:15;102025.46;;;-0.54;68.57
40171;BME280;37650;52.790;18.268;2023-02-28T17:26:37;102025.89;;;-0.62;69.10
40171;BME280;37650;52.790;18.268;2023-02-28T17:30:00;102025.80;;;-0.70;69.61
40171;BME280;37650;52.790;18.268;2023-02-28T17:33:26;102024.74;;;-0.75;69.89
40171;BME280;37650;52.790;18.268;2023-02-28T17:36:51;102021.92;;;-0.82;70.31
40171;BME280;37650;52.790;18.268;2023-02-28T17:40:20;102017.23;;;-0.93;70.87
40171;BME280;37650;52.790;18.268;2023-02-28T17:43:43;102015.84;;;-1.03;71.21
40171;BME280;37650;52.790;18.268;2023-02-28T17:47:05;102014.20;;;-1.10;72.04
40171;BME280;37650;52.790;18.268;2023-02-28T17:50:27;102007.54;;;-1.13;72.55
40171;BME280;37650;52.790;18.268;2023-02-28T17:53:48;102005.05;;;-1.15;73.20
40171;BME280;37650;52.790;18.268;2023-02-28T17:57:12;102007.36;;;-1.18;73.52
40171;BME280;37650;52.790;18.268;2023-02-28T18:00:38;102004.30;;;-1.21;73.62
40171;BME280;37650;52.790;18.268;2023-02-28T18:04:00;101999.74;;;-1.24;74.21
40171;BME280;37650;52.790;18.268;2023-02-28T18:07:23;101999.02;;;-1.25;74.32
40171;BME280;37650;52.790;18.268;2023-02-28T18:10:46;101994.80;;;-1.27;75.00
40171;BME280;37650;52.790;18.268;2023-02-28T18:14:10;101994.73;;;-1.30;75.17
40171;BME280;37650;52.790;18.268;2023-02-28T18:17:33;101990.67;;;-1.32;75.14
40171;BME280;37650;52.790;18.268;2023-02-28T18:20:54;101989.23;;;-1.34;75.66
40171;BME280;37650;52.790;18.268;2023-02-28T18:24:19;101987.52;;;-1.38;75.32
40171;BME280;37650;52.790;18.268;2023-02-28T18:27:44;101983.29;;;-1.41;75.81
40171;BME280;37650;52.790;18.268;2023-02-28T18:31:20;101979.76;;;-1.43;76.12
40171;BME280;37650;52.790;18.268;2023-02-28T18:34:43;101980.98;;;-1.47;76.52
40171;BME280;37650;52.790;18.268;2023-02-28T18:38:14;101984.60;;;-1.52;76.78
40171;BME280;37650;52.790;18.268;2023-02-28T18:41:37;101983.06;;;-1.60;77.19
40171;BME280;37650;52.790;18.268;2023-02-28T18:45:00;101977.00;;;-1.66;77.16
40171;BME280;37650;52.790;18.268;2023-02-28T18:48:23;101975.95;;;-1.71;77.64
40171;BME280;37650;52.790;18.268;2023-02-28T18:51:47;101968.80;;;-1.73;78.24
40171;BME280;37650;52.790;18.268;2023-02-28T18:55:10;101968.95;;;-1.74;78.49
40171;BME280;37650;52.790;18.268;2023-02-28T18:58:36;101972.46;;;-1.77;78.66
40171;BME280;37650;52.790;18.268;2023-02-28T19:01:58;101971.73;;;-1.78;78.76
40171;BME280;37650;52.790;18.268;2023-02-28T19:05:24;101967.85;;;-1.80;78.77
40171;BME280;37650;52.790;18.268;2023-02-28T19:08:51;101969.89;;;-1.76;78.68
40171;BME280;37650;52.790;18.268;2023-02-28T19:12:14;101967.98;;;-1.67;78.76
40171;BME280;37650;52.790;18.268;2023-02-28T19:15:39;101969.41;;;-1.62;79.08
40171;BME280;37650;52.790;18.268;2023-02-28T19:19:02;101972.23;;;-1.60;79.25
40171;BME280;37650;52.790;18.268;2023-02-28T19:22:24;101978.73;;;-1.61;78.99
40171;BME280;37650;52.790;18.268;2023-02-28T19:25:48;101968.40;;;-1.61;79.15
40171;BME280;37650;52.790;18.268;2023-02-28T19:29:11;101967.48;;;-1.62;78.90
40171;BME280;37650;52.790;18.268;2023-02-28T19:32:35;101971.56;;;-1.64;79.31
40171;BME280;37650;52.790;18.268;2023-02-28T19:36:00;101977.15;;;-1.66;79.40
40171;BME280;37650;52.790;18.268;2023-02-28T19:39:22;101974.57;;;-1.71;79.53
40171;BME280;37650;52.790;18.268;2023-02-28T19:42:46;101980.36;;;-1.73;79.88
40171;BME280;37650;52.790;18.268;2023-02-28T19:46:12;101979.21;;;-1.76;79.94
40171;BME280;37650;52.790;18.268;2023-02-28T19:49:36;101985.14;;;-1.78;80.15